Аэропорт: Мирный. Мирный

ICAO: UERR

METAR:
2021-10-23 00:30:00
UERR 230030Z 23004MPS CAVOK 00/M04 Q1007 R25/CLRD60 NOSIG RMK QFE724/0966
METAR:
2021-10-22 23:00:00
TAF UERR 222300Z 2300/2324 25004G09MPS 9999 SCT010 BKN020 OVC100 TEMPO 2300/2306 BKN007 OVC015